Skip Navigation LinksHome page > Weather > Current weather Skip Navigation Links

Current Weather

Eureka, Nunavut

For information only: do not use for flight planning or navigation.
Latest weather
Observation time Tuesday, December 1, 2015 9:00 PM CST
Local time Tuesday, December 1, 2015 11:05 PM CST
Flight conditions Visual Meteorological Conditions
Wind speed calm
Visibility 7 mi.
Sky condition
Ceiling unlimited
Sky clear
Temperature -36°F
Dewpoint -44°F
Altimeter 29.75 in.Hg
Derived measurements
Relative humidity 66%
Wind chill -36°F
Density altitude -6854 ft.
Sea-level pressure 29.76 in.Hg
Last observation of the day.
METAR CWEU 020300Z 00000KT 7SM SKC M38/M42 A2975 RMK IC LAST OBS/NEXT 020600 UTC SLP077


Location code

InnerDrive.Weather 4.0.5722.1 Release CLR 4.0.30319.34014
Copyright ©2015 Inner Drive Technology. All rights reserved. Portions Copyright ©1986-2015 David Braverman.

Find weather

Site navigation

Skip Navigation Links

Place info

Page info

PayPal - The safer, easier way to pay online!

Return home.

Copyright ©2015 Inner Drive Technology. Purveyors of fine, hand-crafted computer software. Page printed 2015-12-02T05:05:26 UTC.